createdAt,value
2024-03-12T00:03:18.053Z,30.38
2024-03-12T00:07:23.283Z,30.45
2024-03-12T00:11:26.016Z,30.40
2024-03-12T00:15:37.496Z,30.50
2024-03-12T00:19:41.743Z,30.99
2024-03-12T00:23:43.673Z,30.35
2024-03-12T00:27:45.510Z,30.63
2024-03-12T00:31:46.960Z,30.21
2024-03-12T00:35:48.596Z,30.11
2024-03-12T00:39:51.167Z,30.34
2024-03-12T00:43:53.268Z,30.04
2024-03-12T00:47:55.271Z,29.94
2024-03-12T00:51:57.866Z,30.19
2024-03-12T00:55:59.457Z,30.19
2024-03-12T01:00:02.555Z,30.30
2024-03-12T01:04:04.520Z,30.28
2024-03-12T01:08:10.172Z,30.23
2024-03-12T01:12:11.735Z,30.32
2024-03-12T01:16:13.277Z,30.22
2024-03-12T01:20:17.803Z,30.20
2024-03-12T01:24:20.119Z,30.42
2024-03-12T01:28:23.702Z,30.00
2024-03-12T01:32:26.688Z,29.74
2024-03-12T01:36:35.718Z,30.46
2024-03-12T01:40:37.512Z,30.28
2024-03-12T01:44:40.661Z,30.38
2024-03-12T01:48:42.102Z,30.36
2024-03-12T01:52:44.842Z,29.37
2024-03-12T01:56:48.927Z,29.86
2024-03-12T02:00:51.148Z,29.51
2024-03-12T02:04:52.676Z,29.90
2024-03-12T02:08:54.804Z,30.10
2024-03-12T02:12:59.444Z,29.94
2024-03-12T02:17:00.864Z,29.60
2024-03-12T02:21:04.902Z,30.36
2024-03-12T02:25:08.162Z,30.12
2024-03-12T02:29:11.484Z,30.20
2024-03-12T02:33:15.268Z,30.29
2024-03-12T02:37:16.968Z,30.42
2024-03-12T02:41:22.792Z,30.43
2024-03-12T02:45:24.895Z,29.55
2024-03-12T02:49:26.925Z,29.46
2024-03-12T02:53:28.405Z,30.64
2024-03-12T02:57:29.890Z,29.95
2024-03-12T03:01:31.491Z,29.71
2024-03-12T03:05:33.509Z,29.67
2024-03-12T03:09:35.671Z,29.65
2024-03-12T03:13:37.328Z,29.65
2024-03-12T03:17:39.997Z,29.67
2024-03-12T03:21:41.545Z,30.09
2024-03-12T03:25:43.396Z,29.56
2024-03-12T03:29:44.794Z,29.79
2024-03-12T03:33:49.192Z,29.63
2024-03-12T03:37:50.688Z,29.69
2024-03-12T03:41:53.178Z,29.84
2024-03-12T03:45:54.632Z,29.65
2024-03-12T03:49:56.281Z,29.60
2024-03-12T03:54:02.014Z,30.14
2024-03-12T03:58:03.580Z,30.15
2024-03-12T04:02:06.661Z,30.31
2024-03-12T04:06:08.235Z,29.90
2024-03-12T04:10:12.860Z,30.04
2024-03-12T04:14:14.418Z,29.95
2024-03-12T04:18:20.055Z,29.83
2024-03-12T04:22:21.674Z,29.61
2024-03-12T04:26:23.438Z,29.45
2024-03-12T04:30:25.316Z,29.64
2024-03-12T04:34:26.790Z,29.79
2024-03-12T04:38:31.260Z,29.78
2024-03-12T04:42:38.789Z,29.97
2024-03-12T04:46:52.755Z,29.93
2024-03-12T04:50:54.632Z,29.71
2024-03-12T04:54:58.510Z,29.69
2024-03-12T04:59:00.032Z,29.22
2024-03-12T05:03:01.545Z,29.07
2024-03-12T05:07:03.068Z,29.28
2024-03-12T05:11:04.821Z,29.33
2024-03-12T05:15:07.257Z,29.26
2024-03-12T05:19:11.989Z,29.47
2024-03-12T05:23:14.519Z,28.92
2024-03-12T05:27:26.918Z,29.41
2024-03-12T05:31:32.775Z,30.28
2024-03-12T05:35:34.865Z,29.58
2024-03-12T05:39:49.312Z,29.53
2024-03-12T05:44:09.435Z,29.79
2024-03-12T05:48:11.456Z,29.47
2024-03-12T05:52:13.128Z,29.73
2024-03-12T05:56:17.009Z,29.69
2024-03-12T06:00:20.607Z,29.48
2024-03-12T06:04:22.087Z,29.67
2024-03-12T06:08:25.719Z,29.90
2024-03-12T06:12:27.387Z,29.76
2024-03-12T06:16:29.152Z,29.22
2024-03-12T06:20:31.889Z,29.92
2024-03-12T06:24:33.482Z,29.85
2024-03-12T06:28:35.571Z,29.98
2024-03-12T06:32:37.016Z,29.54
2024-03-12T06:36:40.105Z,29.70
2024-03-12T06:40:41.640Z,29.61
2024-03-12T06:44:43.892Z,29.53
2024-03-12T06:48:47.148Z,29.04
2024-03-12T06:52:52.009Z,29.27
2024-03-12T06:56:54.903Z,29.45
2024-03-12T07:00:57.112Z,29.19
2024-03-12T07:04:58.959Z,29.06
2024-03-12T07:09:04.477Z,29.43
2024-03-12T07:13:08.531Z,29.46
2024-03-12T07:17:15.407Z,28.63
2024-03-12T07:21:17.386Z,29.37
2024-03-12T07:25:18.912Z,28.99
2024-03-12T07:29:20.404Z,29.19
2024-03-12T07:33:22.090Z,28.87
2024-03-12T07:37:23.544Z,29.07
2024-03-12T07:41:25.028Z,29.01
2024-03-12T07:45:27.832Z,28.70
2024-03-12T07:49:29.696Z,28.70
2024-03-12T07:53:31.887Z,29.23
2024-03-12T07:57:33.690Z,29.15
2024-03-12T08:01:35.664Z,29.65
2024-03-12T08:05:37.198Z,29.65
2024-03-12T08:09:39.568Z,29.87
2024-03-12T08:13:41.169Z,29.32
2024-03-12T08:17:44.622Z,29.39
2024-03-12T08:21:47.985Z,29.77
2024-03-12T08:25:56.209Z,29.86
2024-03-12T08:30:01.752Z,29.54
2024-03-12T08:34:04.306Z,29.63
2024-03-12T08:38:05.832Z,30.08
2024-03-12T08:42:10.546Z,29.99
2024-03-12T08:46:12.358Z,29.59
2024-03-12T08:50:13.851Z,30.15
2024-03-12T08:54:15.572Z,30.14
2024-03-12T08:58:18.419Z,29.83
2024-03-12T09:02:19.929Z,30.04
2024-03-12T09:06:21.684Z,30.21
2024-03-12T09:10:23.737Z,30.21
2024-03-12T09:14:25.833Z,30.32
2024-03-12T09:18:27.800Z,30.45
2024-03-12T09:22:30.008Z,30.32
2024-03-12T09:26:33.232Z,30.45
2024-03-12T09:30:35.441Z,30.30
2024-03-12T09:34:40.348Z,30.65
2024-03-12T09:38:42.473Z,30.76
2024-03-12T09:42:48.254Z,30.61
2024-03-12T09:46:50.356Z,30.82
2024-03-12T09:50:51.992Z,31.13
2024-03-12T09:54:53.608Z,30.85
2024-03-12T09:58:55.840Z,31.17
2024-03-12T10:03:00.960Z,31.06
2024-03-12T10:07:03.019Z,31.01
2024-03-12T10:11:09.969Z,30.96
2024-03-12T10:15:13.345Z,31.10
2024-03-12T10:19:19.585Z,31.13
2024-03-12T10:23:23.515Z,30.91
2024-03-12T10:27:25.041Z,31.20
2024-03-12T10:31:30.190Z,30.98
2024-03-12T10:35:38.504Z,31.15
2024-03-12T10:39:45.347Z,31.32
2024-03-12T10:43:56.368Z,31.13
2024-03-12T10:47:59.552Z,31.30
2024-03-12T10:52:02.730Z,31.12
2024-03-12T10:56:11.561Z,31.42
2024-03-12T11:00:21.768Z,31.03
2024-03-12T11:04:24.109Z,30.95
2024-03-12T11:08:27.866Z,30.98
2024-03-12T11:12:29.288Z,30.94
2024-03-12T11:16:35.683Z,31.04
2024-03-12T11:20:41.298Z,30.40
2024-03-12T11:24:48.697Z,31.13
2024-03-12T11:28:51.380Z,30.98
2024-03-12T11:32:53.971Z,31.51
2024-03-12T11:37:13.839Z,31.31
2024-03-12T11:41:17.564Z,31.39
2024-03-12T11:45:48.329Z,32.04
2024-03-12T11:49:51.204Z,32.14
2024-03-12T11:53:53.645Z,32.78
2024-03-12T11:57:56.111Z,32.76
2024-03-12T12:01:59.518Z,32.73
2024-03-12T12:06:02.801Z,32.37
2024-03-12T12:10:04.742Z,32.77
2024-03-12T12:14:07.208Z,33.40
2024-03-12T12:18:11.961Z,33.29
2024-03-12T12:22:16.306Z,33.33
2024-03-12T12:26:20.421Z,33.45
2024-03-12T12:30:23.223Z,33.78
2024-03-12T12:34:29.374Z,33.95
2024-03-12T12:38:31.738Z,34.31
2024-03-12T12:42:34.717Z,34.22
2024-03-12T12:46:40.857Z,34.10
2024-03-12T12:50:42.757Z,32.65
2024-03-12T12:54:46.757Z,33.19
2024-03-12T12:58:48.807Z,33.77
2024-03-12T13:02:50.227Z,33.34
2024-03-12T13:06:56.133Z,32.75
2024-03-12T13:11:09.999Z,33.59
2024-03-12T13:15:25.546Z,33.42
2024-03-12T13:19:27.619Z,33.22
2024-03-12T13:23:32.031Z,33.75
2024-03-12T13:27:33.591Z,33.45
2024-03-12T13:31:35.404Z,34.08
2024-03-12T13:35:36.879Z,33.61
2024-03-12T13:39:38.821Z,33.27
2024-03-12T13:43:41.650Z,32.84
2024-03-12T13:47:43.069Z,33.35
2024-03-12T13:51:46.383Z,32.79
2024-03-12T13:55:47.863Z,32.86
2024-03-12T13:59:49.783Z,32.41
2024-03-12T14:03:52.733Z,32.70
2024-03-12T14:07:54.539Z,32.56
2024-03-12T14:11:56.133Z,32.52
2024-03-12T14:15:57.798Z,32.20
2024-03-12T14:19:59.237Z,32.12
2024-03-12T14:24:02.930Z,32.32
2024-03-12T14:28:06.663Z,32.59
2024-03-12T14:32:08.830Z,32.29
2024-03-12T14:36:11.159Z,32.40
2024-03-12T14:40:13.149Z,31.94
2024-03-12T14:44:15.160Z,31.59
2024-03-12T14:48:17.213Z,32.27
2024-03-12T14:52:18.601Z,31.88
2024-03-12T14:56:20.086Z,32.32
2024-03-12T15:00:21.879Z,32.29
2024-03-12T15:04:23.398Z,30.94
2024-03-12T15:08:25.034Z,32.20
2024-03-12T15:12:28.802Z,32.33
2024-03-12T15:16:31.821Z,32.83
2024-03-12T15:20:33.348Z,32.90
2024-03-12T15:24:36.151Z,30.89
2024-03-12T15:28:38.935Z,31.62
2024-03-12T15:32:40.872Z,32.40
2024-03-12T15:36:43.123Z,31.41
2024-03-12T15:40:45.272Z,30.68
2024-03-12T15:44:46.654Z,31.27
2024-03-12T15:48:48.400Z,31.93
2024-03-12T15:52:49.900Z,31.04
2024-03-12T15:56:52.677Z,31.78
2024-03-12T16:00:54.286Z,31.09
2024-03-12T16:04:55.750Z,31.65
2024-03-12T16:08:59.479Z,31.37
2024-03-12T16:13:02.812Z,31.84
2024-03-12T16:17:07.219Z,31.39
2024-03-12T16:21:08.738Z,31.61
2024-03-12T16:25:10.737Z,30.60
2024-03-12T16:29:12.273Z,30.47
2024-03-12T16:33:13.972Z,31.22
2024-03-12T16:37:15.621Z,30.77
2024-03-12T16:41:17.257Z,31.30
2024-03-12T16:45:18.747Z,31.63
2024-03-12T16:49:20.315Z,31.65
2024-03-12T16:53:22.041Z,31.29
2024-03-12T16:57:23.936Z,31.33
2024-03-12T17:01:25.769Z,31.83
2024-03-12T17:05:29.059Z,31.34
2024-03-12T17:09:30.762Z,30.09
2024-03-12T17:13:32.499Z,30.71
2024-03-12T17:17:34.508Z,31.15
2024-03-12T17:21:39.982Z,31.43
2024-03-12T17:25:41.786Z,31.18
2024-03-12T17:29:44.439Z,31.80
2024-03-12T17:33:48.702Z,31.33
2024-03-12T17:37:55.669Z,31.06
2024-03-12T17:41:57.396Z,31.27
2024-03-12T17:45:59.242Z,30.55
2024-03-12T17:50:03.671Z,29.99
2024-03-12T17:54:05.602Z,30.42
2024-03-12T17:58:07.959Z,29.92
2024-03-12T18:02:15.427Z,30.13
2024-03-12T18:06:20.183Z,29.92
2024-03-12T18:10:26.446Z,30.13
2024-03-12T18:14:30.257Z,29.85
2024-03-12T18:18:31.716Z,30.03
2024-03-12T18:22:33.295Z,30.77
2024-03-12T18:26:34.674Z,30.28
2024-03-12T18:30:37.510Z,30.14
2024-03-12T18:34:40.027Z,29.88
2024-03-12T18:38:41.479Z,29.62
2024-03-12T18:42:43.593Z,30.06
2024-03-12T18:46:45.046Z,29.88
2024-03-12T18:50:46.693Z,30.11
2024-03-12T18:54:48.609Z,29.68
2024-03-12T18:58:50.431Z,29.87
2024-03-12T19:02:53.701Z,29.96
2024-03-12T19:06:55.609Z,29.75
2024-03-12T19:10:57.352Z,29.39
2024-03-12T19:14:59.397Z,28.81
2024-03-12T19:19:04.158Z,29.66
2024-03-12T19:23:06.178Z,29.53
2024-03-12T19:27:14.416Z,30.01
2024-03-12T19:31:22.810Z,29.42
2024-03-12T19:35:24.644Z,29.97
2024-03-12T19:39:27.267Z,29.48
2024-03-12T19:43:29.646Z,28.86
2024-03-12T19:47:32.200Z,29.72
2024-03-12T19:51:34.465Z,28.61
2024-03-12T19:55:37.772Z,29.49
2024-03-12T19:59:39.854Z,29.08
2024-03-12T20:03:41.369Z,29.13
2024-03-12T20:07:46.830Z,29.20
2024-03-12T20:11:48.288Z,30.11
2024-03-12T20:15:50.119Z,29.61
2024-03-12T20:19:51.615Z,29.54
2024-03-12T20:23:53.061Z,28.66
2024-03-12T20:27:55.373Z,29.57
2024-03-12T20:31:58.586Z,29.30
2024-03-12T20:36:02.373Z,28.49
2024-03-12T20:40:10.599Z,28.36
2024-03-12T20:44:12.695Z,29.41
2024-03-12T20:48:14.720Z,27.68
2024-03-12T20:52:16.547Z,28.97
2024-03-12T20:56:18.043Z,28.23
2024-03-12T21:00:29.905Z,28.32
2024-03-12T21:04:35.122Z,27.26
2024-03-12T21:08:38.156Z,27.17
2024-03-12T21:12:40.464Z,28.66
2024-03-12T21:16:42.608Z,28.77
2024-03-12T21:20:44.168Z,29.12
2024-03-12T21:24:45.543Z,28.90
2024-03-12T21:28:47.988Z,28.97
2024-03-12T21:32:49.582Z,28.66
2024-03-12T21:36:51.468Z,28.76
2024-03-12T21:40:53.019Z,28.60
2024-03-12T21:44:54.431Z,28.12
2024-03-12T21:48:56.506Z,27.47
2024-03-12T21:52:59.539Z,27.43
2024-03-12T21:57:02.295Z,28.80
2024-03-12T22:01:04.272Z,27.78
2024-03-12T22:05:08.923Z,29.10
2024-03-12T22:09:10.834Z,29.33
2024-03-12T22:13:17.093Z,29.33
2024-03-12T22:17:22.526Z,28.29
2024-03-12T22:21:26.109Z,29.86
2024-03-12T22:25:27.936Z,29.04
2024-03-12T22:29:30.856Z,28.57
2024-03-12T22:33:34.355Z,28.37
2024-03-12T22:37:39.194Z,28.67
2024-03-12T22:41:48.276Z,29.19
2024-03-12T22:45:50.116Z,29.54
2024-03-12T22:49:54.427Z,29.47
2024-03-12T22:53:56.861Z,29.48
2024-03-12T22:58:06.282Z,28.11
2024-03-12T23:02:10.427Z,29.39
2024-03-12T23:06:12.249Z,29.19
2024-03-12T23:10:13.939Z,29.30
2024-03-12T23:14:16.661Z,29.44
2024-03-12T23:18:18.083Z,28.77
2024-03-12T23:22:19.718Z,29.63
2024-03-12T23:26:21.199Z,29.60
2024-03-12T23:30:23.169Z,29.95
2024-03-12T23:34:24.651Z,29.88
2024-03-12T23:38:26.093Z,29.83
2024-03-12T23:42:27.531Z,30.18
2024-03-12T23:46:29.809Z,28.32
2024-03-12T23:50:31.441Z,29.72
2024-03-12T23:54:32.825Z,29.67
2024-03-12T23:58:36.880Z,29.52
